Time;durP1;ratioP1;P1;durP2;ratioP2;P2;SDS_P1;SDS_P2;PMS_P1;PMS_P2;Temp;Humidity;BMP_temperature;BMP_pressure;BME280_temperature;BME280_humidity;BME280_pressure;Samples;Min_cycle;Max_cycle;Signal;HPM_P1;HPM_P2
2021/01/02 00:09:07;;;;;;;20.50;8.02;;;1.50;99.90;;;;;;6732096;88;20166;-82
2021/01/02 00:19:42;;;;;;;19.42;8.80;;;1.50;99.90;;;;;;6732035;88;20308;-83
2021/01/02 00:30:03;;;;;;;18.20;8.32;;;1.60;99.90;;;;;;6732169;88;20318;-83
2021/01/02 00:40:08;;;;;;;19.92;9.50;;;1.60;99.90;;;;;;6729901;88;20251;-83
2021/01/02 00:50:14;;;;;;;21.87;9.63;;;1.50;99.90;;;;;;6680781;88;20180;-82
2021/01/02 01:00:24;;;;;;;23.43;9.13;;;1.50;99.90;;;;;;6680757;89;20225;-83
2021/01/02 01:10:29;;;;;;;25.30;10.10;;;1.60;99.90;;;;;;6650087;89;20170;-81
2021/01/02 01:20:31;;;;;;;27.62;10.02;;;1.70;99.90;;;;;;6674698;89;20151;-82
2021/01/02 01:30:42;;;;;;;22.75;9.65;;;1.70;99.90;;;;;;6683450;89;20241;-81
2021/01/02 01:41:11;;;;;;;29.27;10.35;;;1.60;99.90;;;;;;6720718;88;20327;-82
2021/01/02 01:51:46;;;;;;;23.35;9.15;;;1.70;99.90;;;;;;6764444;88;20164;-82
2021/01/02 02:01:49;;;;;;;28.58;10.30;;;1.60;99.90;;;;;;6765428;88;20197;-81
2021/01/02 02:12:03;;;;;;;28.67;10.27;;;1.70;99.90;;;;;;6769590;88;20172;-81
2021/01/02 02:22:07;;;;;;;27.30;10.50;;;1.80;99.90;;;;;;6732576;88;20228;-81
2021/01/02 02:32:09;;;;;;;24.55;10.00;;;1.80;99.90;;;;;;6732788;88;20330;-81
2021/01/02 02:42:10;;;;;;;23.00;10.23;;;1.70;99.90;;;;;;6728048;88;20293;-81
2021/01/02 02:52:33;;;;;;;23.55;9.38;;;1.60;99.90;;;;;;6761954;88;20283;-81
2021/01/02 03:02:35;;;;;;;20.15;9.25;;;1.60;99.90;;;;;;6768780;88;20817;-81
2021/01/02 03:12:43;;;;;;;24.37;10.00;;;1.60;99.90;;;;;;6768016;88;20176;-81
2021/01/02 03:22:46;;;;;;;25.77;10.02;;;1.60;99.90;;;;;;6768295;88;20253;-81
2021/01/02 03:32:47;;;;;;;21.02;9.45;;;1.60;99.90;;;;;;6768227;88;20184;-81
2021/01/02 03:42:47;;;;;;;23.12;9.25;;;1.60;99.90;;;;;;6768575;88;20201;-81
2021/01/02 03:52:51;;;;;;;23.70;9.07;;;1.60;99.90;;;;;;6768664;88;20873;-81
2021/01/02 04:02:51;;;;;;;26.33;9.82;;;1.50;99.90;;;;;;6768366;88;20335;-81
2021/01/02 04:12:52;;;;;;;23.67;9.80;;;1.50;99.90;;;;;;6764665;88;20145;-82
2021/01/02 04:22:52;;;;;;;29.23;10.95;;;1.50;99.90;;;;;;6769001;88;20271;-83
2021/01/02 04:32:53;;;;;;;30.83;10.77;;;1.50;99.90;;;;;;6732125;88;20507;-82
2021/01/02 04:42:54;;;;;;;27.40;10.93;;;1.70;99.90;;;;;;6731909;88;20706;-82
2021/01/02 04:52:58;;;;;;;29.87;11.38;;;1.80;99.90;;;;;;6714367;88;20216;-82
2021/01/02 05:03:00;;;;;;;30.00;10.13;;;1.70;99.90;;;;;;6727874;88;20165;-81
2021/01/02 05:13:12;;;;;;;30.20;11.48;;;1.70;99.90;;;;;;6727677;88;20773;-82
2021/01/02 05:23:12;;;;;;;33.67;12.07;;;1.60;99.90;;;;;;6697046;88;20190;-82
2021/01/02 05:33:13;;;;;;;39.83;11.70;;;1.60;99.90;;;;;;6713732;88;21002;-82
2021/01/02 05:43:16;;;;;;;39.20;12.48;;;1.60;99.90;;;;;;6716783;88;20622;-82
2021/01/02 05:53:18;;;;;;;36.03;12.60;;;1.60;99.90;;;;;;6744450;88;20150;-81
2021/01/02 06:03:25;;;;;;;41.85;13.25;;;1.60;99.90;;;;;;6747793;88;20172;-81
2021/01/02 06:13:32;;;;;;;36.80;13.38;;;1.60;99.90;;;;;;6753613;88;20166;-81
2021/01/02 06:23:34;;;;;;;37.45;13.98;;;1.60;99.90;;;;;;6766577;88;20179;-82
2021/01/02 06:33:35;;;;;;;33.10;11.12;;;1.70;99.90;;;;;;6763094;88;20149;-81
2021/01/02 06:43:39;;;;;;;37.60;13.65;;;1.70;99.90;;;;;;6768913;88;20366;-80
2021/01/02 06:53:40;;;;;;;36.65;12.82;;;1.60;99.90;;;;;;6769319;88;20169;-80
2021/01/02 07:03:44;;;;;;;33.67;12.65;;;1.60;99.90;;;;;;6768293;88;20188;-81
2021/01/02 07:13:44;;;;;;;35.50;12.68;;;1.70;99.90;;;;;;6768579;88;20208;-80
2021/01/02 07:23:45;;;;;;;33.30;12.63;;;1.60;99.90;;;;;;6766712;88;20832;-81
2021/01/02 07:33:46;;;;;;;34.33;12.43;;;1.70;99.90;;;;;;6767113;88;20333;-81
2021/01/02 07:43:46;;;;;;;31.65;12.18;;;1.70;99.90;;;;;;6766803;88;20311;-82
2021/01/02 07:53:53;;;;;;;28.33;11.43;;;1.70;99.90;;;;;;6766537;88;20219;-82
2021/01/02 08:03:54;;;;;;;26.35;11.38;;;1.80;99.90;;;;;;6742953;88;20264;-83
2021/01/02 08:13:54;;;;;;;30.23;11.43;;;1.80;99.90;;;;;;6731936;88;20225;-82
2021/01/02 08:23:55;;;;;;;28.65;11.60;;;1.90;99.90;;;;;;6732102;88;20176;-85
2021/01/02 08:33:59;;;;;;;27.23;11.18;;;2.00;99.90;;;;;;6731822;88;20324;-82
2021/01/02 08:44:02;;;;;;;26.67;11.02;;;2.10;99.90;;;;;;6711259;88;20545;-85
2021/01/02 08:54:14;;;;;;;28.15;11.40;;;2.10;99.90;;;;;;6680344;89;20912;-81
2021/01/02 09:04:15;;;;;;;25.40;10.45;;;2.00;99.90;;;;;;6707129;88;20251;-80
2021/01/02 09:14:16;;;;;;;22.65;9.48;;;2.20;99.90;;;;;;6711739;88;20207;-80
2021/01/02 09:24:23;;;;;;;25.40;9.90;;;2.40;99.90;;;;;;6701763;88;20541;-80
2021/01/02 09:34:24;;;;;;;21.37;9.95;;;2.40;99.90;;;;;;6700766;88;21927;-80
2021/01/02 09:44:24;;;;;;;24.70;10.35;;;2.50;99.90;;;;;;6721029;88;20294;-80
2021/01/02 09:54:25;;;;;;;22.17;9.50;;;2.40;99.90;;;;;;6742362;88;20490;-82
2021/01/02 10:04:25;;;;;;;23.10;9.70;;;2.60;99.90;;;;;;6709777;88;20203;-80
2021/01/02 10:25:28;;;;;;;26.25;10.55;;;2.90;99.90;;;;;;6746960;88;20172;-75
2021/01/02 10:35:28;;;;;;;22.83;9.98;;;3.10;99.90;;;;;;6727600;88;20605;-74
2021/01/02 10:45:29;;;;;;;22.35;10.00;;;3.20;99.90;;;;;;6733712;88;20189;-76
2021/01/02 10:55:29;;;;;;;19.35;9.65;;;3.50;99.90;;;;;;6733017;88;20684;-76
2021/01/02 11:05:30;;;;;;;19.87;9.15;;;3.70;99.90;;;;;;6727856;88;20194;-76
2021/01/02 11:15:30;;;;;;;18.83;8.90;;;3.70;99.90;;;;;;6732661;88;20270;-76
2021/01/02 11:25:31;;;;;;;21.62;9.05;;;3.90;99.90;;;;;;6736128;88;20178;-76
2021/01/02 11:35:32;;;;;;;20.33;9.77;;;3.90;99.90;;;;;;6734858;88;20193;-76
2021/01/02 11:45:33;;;;;;;19.40;9.05;;;4.10;99.90;;;;;;6731059;88;20220;-77
2021/01/02 11:55:33;;;;;;;20.83;9.30;;;4.50;99.90;;;;;;6733464;88;20186;-78
2021/01/02 12:05:34;;;;;;;19.10;9.38;;;4.60;99.90;;;;;;6737553;88;20616;-76
2021/01/02 12:15:34;;;;;;;19.37;9.00;;;4.50;99.90;;;;;;6734071;88;20178;-77
2021/01/02 12:25:35;;;;;;;19.37;8.82;;;4.50;99.90;;;;;;6731444;88;20178;-77
2021/01/02 12:35:36;;;;;;;18.55;8.95;;;4.50;99.90;;;;;;6734062;87;20189;-76
2021/01/02 12:45:36;;;;;;;19.63;9.37;;;4.50;99.90;;;;;;6738835;88;20494;-75
2021/01/02 12:55:37;;;;;;;19.30;9.18;;;4.70;99.90;;;;;;6730844;88;20986;-76
2021/01/02 13:05:37;;;;;;;17.25;8.45;;;4.70;99.90;;;;;;6734846;88;20316;-76
2021/01/02 13:15:38;;;;;;;22.25;9.75;;;4.70;99.90;;;;;;6734396;88;20201;-76
2021/01/02 13:25:38;;;;;;;17.98;9.82;;;4.60;99.90;;;;;;6732419;88;20535;-76
2021/01/02 13:35:39;;;;;;;19.23;9.38;;;4.60;99.90;;;;;;6732177;88;20202;-74
2021/01/02 13:45:40;;;;;;;19.62;9.48;;;4.60;99.90;;;;;;6723870;88;20185;-76
2021/01/02 13:55:40;;;;;;;20.20;9.85;;;4.60;99.90;;;;;;6724404;88;20209;-76
2021/01/02 14:05:41;;;;;;;21.80;9.95;;;4.60;99.90;;;;;;6720254;88;20186;-76
2021/01/02 14:15:42;;;;;;;22.17;10.05;;;4.60;99.90;;;;;;6724221;88;20196;-76
2021/01/02 14:25:43;;;;;;;19.50;10.02;;;4.50;99.90;;;;;;6729241;88;20187;-76
2021/01/02 14:35:43;;;;;;;19.25;9.77;;;4.60;99.90;;;;;;6725379;88;20198;-76
2021/01/02 14:45:44;;;;;;;24.90;11.10;;;4.50;99.90;;;;;;6732379;88;20207;-76
2021/01/02 14:55:46;;;;;;;26.40;11.45;;;4.30;99.90;;;;;;6731223;88;20720;-77
2021/01/02 15:05:46;;;;;;;27.33;13.10;;;4.30;99.90;;;;;;6730416;88;20195;-76
2021/01/02 15:15:47;;;;;;;23.30;11.85;;;4.20;99.90;;;;;;6733770;88;20281;-77
2021/01/02 15:25:47;;;;;;;25.80;12.43;;;4.10;99.90;;;;;;6737199;88;20475;-76
2021/01/02 15:35:48;;;;;;;20.77;10.13;;;4.30;99.90;;;;;;6738183;88;20237;-75
2021/01/02 15:45:49;;;;;;;24.10;10.77;;;4.20;99.90;;;;;;6736505;88;20796;-78
2021/01/02 15:55:49;;;;;;;26.70;12.37;;;4.30;99.90;;;;;;6733127;88;20311;-77
2021/01/02 16:05:53;;;;;;;27.45;13.02;;;4.20;99.90;;;;;;6725974;88;20203;-77
2021/01/02 16:15:53;;;;;;;31.27;14.50;;;3.90;99.90;;;;;;6737529;88;20322;-76
2021/01/02 16:25:54;;;;;;;28.33;13.50;;;3.80;99.90;;;;;;6736410;88;20216;-78
2021/01/02 16:35:55;;;;;;;29.80;14.05;;;3.70;99.90;;;;;;6737744;88;20505;-77
2021/01/02 16:55:58;;;;;;;29.23;13.62;;;3.70;99.90;;;;;;6752058;88;20677;-79
2021/01/02 17:05:59;;;;;;;28.17;13.10;;;3.90;99.90;;;;;;6762205;88;20754;-79
2021/01/02 17:15:59;;;;;;;26.52;11.98;;;3.70;99.90;;;;;;6747998;88;20209;-79
2021/01/02 17:26:00;;;;;;;24.02;11.93;;;3.60;99.90;;;;;;6743507;88;20308;-79
2021/01/02 17:36:00;;;;;;;26.52;12.65;;;3.70;99.90;;;;;;6741094;88;20209;-80
2021/01/02 17:46:01;;;;;;;31.12;13.75;;;3.80;99.90;;;;;;6747716;88;20187;-78
2021/01/02 17:56:02;;;;;;;28.05;13.07;;;3.70;99.90;;;;;;6747853;88;20222;-81
2021/01/02 18:06:03;;;;;;;29.67;13.93;;;3.50;99.90;;;;;;6746500;88;20175;-78
2021/01/02 18:16:04;;;;;;;26.12;12.40;;;3.40;99.90;;;;;;6747859;88;21029;-75
2021/01/02 18:26:18;;;;;;;32.28;14.65;;;3.40;99.90;;;;;;6750477;87;20225;-75
2021/01/02 18:36:29;;;;;;;29.50;14.68;;;3.80;99.90;;;;;;6746321;88;20422;-76
2021/01/02 18:46:33;;;;;;;31.90;14.75;;;3.60;99.90;;;;;;6753764;87;20666;-77
2021/01/02 18:56:34;;;;;;;32.30;14.55;;;3.50;99.90;;;;;;6759422;88;20294;-77
2021/01/02 19:06:34;;;;;;;31.62;15.60;;;3.50;99.90;;;;;;6751396;88;20215;-76
2021/01/02 19:16:35;;;;;;;31.30;15.02;;;3.40;99.90;;;;;;6748195;87;20255;-76
2021/01/02 19:26:36;;;;;;;32.45;14.63;;;3.50;99.90;;;;;;6760221;87;20210;-77
2021/01/02 19:36:47;;;;;;;37.10;16.25;;;3.80;99.90;;;;;;6745329;88;20193;-78
2021/01/02 19:46:48;;;;;;;39.22;17.65;;;3.50;99.90;;;;;;6759004;87;20180;-78
2021/01/02 19:56:51;;;;;;;34.38;15.95;;;3.40;99.90;;;;;;6768323;88;20256;-77
2021/01/02 20:06:55;;;;;;;36.67;16.77;;;3.40;99.90;;;;;;6759845;88;20206;-76
2021/01/02 20:17:00;;;;;;;34.47;16.58;;;3.30;99.90;;;;;;6753688;88;20284;-76
2021/01/02 20:27:04;;;;;;;37.83;16.95;;;3.30;99.90;;;;;;6753220;88;20173;-77
2021/01/02 20:37:07;;;;;;;35.10;16.33;;;3.50;99.90;;;;;;6751915;88;20212;-78
2021/01/02 20:47:08;;;;;;;41.45;18.48;;;3.50;99.90;;;;;;6757719;87;20225;-77
2021/01/02 20:57:09;;;;;;;39.05;18.15;;;3.50;99.90;;;;;;6748828;88;20218;-78
2021/01/02 21:07:10;;;;;;;35.58;16.67;;;3.50;99.90;;;;;;6755436;88;20728;-78
2021/01/02 21:17:14;;;;;;;35.38;16.50;;;3.40;99.90;;;;;;6757464;88;20172;-77
2021/01/02 21:27:21;;;;;;;33.28;16.48;;;3.60;99.90;;;;;;6740818;88;20862;-77
2021/01/02 21:37:25;;;;;;;36.38;17.33;;;3.50;99.90;;;;;;6751878;88;20687;-76
2021/01/02 21:47:25;;;;;;;32.35;16.25;;;3.40;99.90;;;;;;6745134;87;20204;-75
2021/01/02 21:57:26;;;;;;;33.35;16.60;;;3.40;99.90;;;;;;6750611;87;20712;-75
2021/01/02 22:07:26;;;;;;;34.45;16.30;;;3.30;99.90;;;;;;6743569;88;20219;-75
2021/01/02 22:17:27;;;;;;;38.88;17.45;;;3.50;99.90;;;;;;6746738;88;20378;-76
2021/01/02 22:27:28;;;;;;;34.55;16.80;;;3.50;99.90;;;;;;6744272;88;20331;-74
2021/01/02 22:37:28;;;;;;;32.17;15.20;;;3.30;99.90;;;;;;6743389;88;20849;-76
2021/01/02 22:47:29;;;;;;;30.73;15.90;;;3.30;99.90;;;;;;6749228;88;20187;-75
2021/01/02 22:57:29;;;;;;;35.63;15.82;;;3.30;99.90;;;;;;6744766;77;20208;-73
2021/01/02 23:07:30;;;;;;;30.85;15.00;;;3.40;99.90;;;;;;6738026;87;20247;-72
2021/01/02 23:17:30;;;;;;;33.08;15.57;;;3.30;99.90;;;;;;6736108;87;20234;-75
2021/01/02 23:27:31;;;;;;;28.10;13.18;;;3.30;99.90;;;;;;6738960;88;20394;-73
2021/01/02 23:37:31;;;;;;;23.12;12.32;;;3.30;99.90;;;;;;6737093;87;20213;-73
2021/01/02 23:47:32;;;;;;;30.90;14.20;;;3.50;99.90;;;;;;6743536;88;20197;-73
2021/01/02 23:57:32;;;;;;;35.43;16.83;;;3.40;99.90;;;;;;6753110;88;20248;-73
